Time;durP1;ratioP1;P1;durP2;ratioP2;P2;SDS_P1;SDS_P2;PMS_P1;PMS_P2;Temp;Humidity;BMP_temperature;BMP_pressure;BME280_temperature;BME280_humidity;BME280_pressure;Samples;Min_cycle;Max_cycle;Signal;HPM_P1;HPM_P2
2023/05/12 00:01:52;;;;;;;24.60;18.30;;;;;;;;;;4933312;29;20632;-65
2023/05/12 00:04:21;;;;;;;23.70;18.73;;;;;;;;;;4934853;29;20640;-63
2023/05/12 00:06:50;;;;;;;23.53;16.50;;;;;;;;;;4938153;29;20614;-63
2023/05/12 00:09:18;;;;;;;21.87;16.20;;;;;;;;;;4933982;29;20634;-63
2023/05/12 00:11:47;;;;;;;20.60;16.95;;;;;;;;;;4934680;29;20595;-63
2023/05/12 00:14:15;;;;;;;25.37;18.27;;;;;;;;;;4934334;29;20210;-63
2023/05/12 00:16:43;;;;;;;20.03;15.93;;;;;;;;;;4935076;29;20648;-64
2023/05/12 00:19:12;;;;;;;17.37;14.80;;;;;;;;;;4933852;29;20632;-64
2023/05/12 00:21:42;;;;;;;20.83;15.80;;;;;;;;;;4935246;29;21219;-64
2023/05/12 00:24:10;;;;;;;21.87;14.80;;;;;;;;;;4934027;29;20607;-63
2023/05/12 00:26:38;;;;;;;20.10;15.30;;;;;;;;;;4935099;29;20642;-64
2023/05/12 00:29:06;;;;;;;19.15;14.85;;;;;;;;;;4915811;29;20670;-64
2023/05/12 00:31:35;;;;;;;18.47;14.03;;;;;;;;;;4935473;29;20212;-64
2023/05/12 00:34:03;;;;;;;18.40;13.97;;;;;;;;;;4919008;29;20614;-63
2023/05/12 00:36:31;;;;;;;15.00;13.02;;;;;;;;;;4935123;29;20611;-65
2023/05/12 00:39:02;;;;;;;18.83;14.47;;;;;;;;;;4934471;29;20204;-64
2023/05/12 00:41:31;;;;;;;19.23;14.53;;;;;;;;;;4930058;29;20591;-64
2023/05/12 00:43:59;;;;;;;19.23;16.10;;;;;;;;;;4934575;29;20607;-63
2023/05/12 00:46:27;;;;;;;19.40;15.10;;;;;;;;;;4934013;29;21014;-64
2023/05/12 00:48:56;;;;;;;19.83;13.60;;;;;;;;;;4938156;29;20615;-64
2023/05/12 00:51:26;;;;;;;17.60;13.77;;;;;;;;;;4934665;29;21016;-64
2023/05/12 00:53:55;;;;;;;14.07;12.50;;;;;;;;;;4934759;29;20624;-64
2023/05/12 00:56:26;;;;;;;15.50;13.43;;;;;;;;;;4917581;29;21228;-64
2023/05/12 00:58:54;;;;;;;15.00;11.97;;;;;;;;;;4927850;29;20622;-64
2023/05/12 01:01:23;;;;;;;15.40;12.60;;;;;;;;;;4950473;29;21237;-67
2023/05/12 01:03:54;;;;;;;13.50;11.50;;;;;;;;;;4943971;29;20665;-67
2023/05/12 01:06:27;;;;;;;15.45;12.25;;;;;;;;;;4919346;29;20748;-67
2023/05/12 01:08:56;;;;;;;15.67;12.50;;;;;;;;;;4919234;29;20211;-67
2023/05/12 01:11:26;;;;;;;15.30;12.25;;;;;;;;;;4937017;29;20705;-67
2023/05/12 01:13:55;;;;;;;14.85;11.10;;;;;;;;;;4921832;29;20293;-67
2023/05/12 01:16:24;;;;;;;13.73;10.88;;;;;;;;;;4937891;29;20197;-67
2023/05/12 01:18:54;;;;;;;18.30;10.57;;;;;;;;;;4941131;29;20211;-67
2023/05/12 01:21:23;;;;;;;13.10;10.63;;;;;;;;;;4924928;29;20575;-67
2023/05/12 01:23:57;;;;;;;15.15;12.15;;;;;;;;;;4940193;29;20604;-66
2023/05/12 01:26:31;;;;;;;13.02;11.70;;;;;;;;;;4943788;29;20212;-67
2023/05/12 01:29:00;;;;;;;16.60;12.38;;;;;;;;;;4939783;29;20193;-67
2023/05/12 01:31:29;;;;;;;13.35;11.80;;;;;;;;;;4940352;29;20209;-67
2023/05/12 01:33:58;;;;;;;13.55;10.80;;;;;;;;;;4940823;29;20362;-67
2023/05/12 01:40:33;;;;;;;13.48;11.73;;;;;;;;;;4940937;29;20699;-67
2023/05/12 01:43:03;;;;;;;14.97;11.87;;;;;;;;;;4927985;29;20264;-67
2023/05/12 01:45:37;;;;;;;13.35;11.02;;;;;;;;;;4951444;29;20701;-68
2023/05/12 01:48:06;;;;;;;12.00;10.32;;;;;;;;;;4940761;29;20638;-67
2023/05/12 01:50:34;;;;;;;13.25;11.25;;;;;;;;;;4930577;29;20287;-67
2023/05/12 01:53:04;;;;;;;14.10;11.40;;;;;;;;;;4957452;29;20264;-68
2023/05/12 01:55:33;;;;;;;19.35;12.75;;;;;;;;;;4940003;29;20203;-67
2023/05/12 01:58:01;;;;;;;14.85;12.60;;;;;;;;;;4941978;29;20293;-67
2023/05/12 02:00:31;;;;;;;14.70;12.48;;;;;;;;;;4949325;29;20201;-66
2023/05/12 02:03:01;;;;;;;16.15;12.35;;;;;;;;;;4935960;29;20279;-67
2023/05/12 02:05:30;;;;;;;18.55;13.05;;;;;;;;;;4956009;29;20256;-67
2023/05/12 02:07:58;;;;;;;16.63;13.52;;;;;;;;;;4956131;29;20300;-67
2023/05/12 02:10:26;;;;;;;17.63;13.65;;;;;;;;;;4935330;29;20320;-67
2023/05/12 02:12:55;;;;;;;18.42;13.00;;;;;;;;;;4935720;29;20739;-68
2023/05/12 02:15:23;;;;;;;16.35;13.20;;;;;;;;;;4924784;29;20651;-67
2023/05/12 02:17:53;;;;;;;18.30;14.10;;;;;;;;;;4928632;29;20205;-67
2023/05/12 02:20:22;;;;;;;16.83;12.77;;;;;;;;;;4941321;29;20273;-67
2023/05/12 02:22:50;;;;;;;16.80;13.45;;;;;;;;;;4940803;29;20260;-67
2023/05/12 02:25:18;;;;;;;16.70;13.45;;;;;;;;;;4956048;29;20623;-67
2023/05/12 02:27:47;;;;;;;17.00;13.55;;;;;;;;;;4955920;29;20284;-67
2023/05/12 02:30:16;;;;;;;17.42;13.88;;;;;;;;;;4949457;29;20280;-67
2023/05/12 02:32:44;;;;;;;19.13;14.40;;;;;;;;;;4941710;29;20313;-67
2023/05/12 02:35:14;;;;;;;20.00;13.88;;;;;;;;;;4942270;29;20255;-67
2023/05/12 02:37:43;;;;;;;18.55;14.02;;;;;;;;;;4952440;29;20264;-67
2023/05/12 02:40:12;;;;;;;16.83;13.75;;;;;;;;;;4950840;29;20287;-67
2023/05/12 02:42:42;;;;;;;17.92;13.65;;;;;;;;;;4956421;29;20280;-67
2023/05/12 02:45:11;;;;;;;17.92;13.40;;;;;;;;;;4929751;29;20205;-67
2023/05/12 02:47:40;;;;;;;15.93;12.77;;;;;;;;;;4923980;29;20221;-67
2023/05/12 02:50:09;;;;;;;17.17;13.57;;;;;;;;;;4928824;29;20335;-67
2023/05/12 02:52:39;;;;;;;15.07;12.60;;;;;;;;;;4933662;29;20201;-67
2023/05/12 02:55:07;;;;;;;17.02;14.02;;;;;;;;;;4950458;29;20277;-67
2023/05/12 02:57:35;;;;;;;18.23;13.70;;;;;;;;;;4937598;29;20285;-67
2023/05/12 03:00:04;;;;;;;19.20;15.85;;;;;;;;;;4923769;29;20721;-67
2023/05/12 03:02:35;;;;;;;19.73;14.40;;;;;;;;;;4936316;29;20743;-67
2023/05/12 03:05:03;;;;;;;17.85;14.32;;;;;;;;;;4937709;29;20288;-67
2023/05/12 03:07:32;;;;;;;21.57;14.30;;;;;;;;;;4939511;29;20213;-67
2023/05/12 03:10:01;;;;;;;15.70;13.20;;;;;;;;;;4939751;29;20747;-67
2023/05/12 03:12:29;;;;;;;17.70;13.93;;;;;;;;;;4937433;29;20720;-67
2023/05/12 03:14:58;;;;;;;17.08;14.10;;;;;;;;;;4946810;29;20550;-68
2023/05/12 03:17:27;;;;;;;21.40;15.90;;;;;;;;;;4936174;29;20280;-64
2023/05/12 03:19:55;;;;;;;23.17;15.68;;;;;;;;;;4944747;29;20732;-63
2023/05/12 03:22:24;;;;;;;21.45;15.70;;;;;;;;;;4945393;29;20215;-63
2023/05/12 03:24:52;;;;;;;19.88;15.50;;;;;;;;;;4954461;29;20253;-64
2023/05/12 03:27:23;;;;;;;20.40;15.43;;;;;;;;;;4934023;29;20675;-63
2023/05/12 03:29:51;;;;;;;23.75;16.50;;;;;;;;;;4941183;29;20258;-64
2023/05/12 03:32:19;;;;;;;20.67;15.95;;;;;;;;;;4946327;29;20260;-63
2023/05/12 03:34:48;;;;;;;23.25;15.23;;;;;;;;;;4946143;29;20304;-63
2023/05/12 03:37:16;;;;;;;22.65;15.85;;;;;;;;;;4926509;29;20257;-64
2023/05/12 03:39:46;;;;;;;18.92;14.38;;;;;;;;;;4932689;29;20284;-65
2023/05/12 03:42:15;;;;;;;19.20;15.10;;;;;;;;;;4936684;29;20261;-66
2023/05/12 03:44:44;;;;;;;23.08;15.85;;;;;;;;;;4946068;29;20343;-64
2023/05/12 03:47:13;;;;;;;23.20;15.38;;;;;;;;;;4918141;29;20268;-65
2023/05/12 03:49:41;;;;;;;20.55;16.20;;;;;;;;;;4923449;29;20292;-64
2023/05/12 03:52:10;;;;;;;20.23;15.30;;;;;;;;;;4943294;29;20291;-65
2023/05/12 03:54:39;;;;;;;20.50;15.65;;;;;;;;;;4945758;29;20256;-64
2023/05/12 03:57:07;;;;;;;21.55;16.63;;;;;;;;;;4945498;29;20252;-64
2023/05/12 03:59:35;;;;;;;23.50;17.17;;;;;;;;;;4960603;29;20724;-64
2023/05/12 04:02:06;;;;;;;19.90;16.38;;;;;;;;;;4943774;29;20256;-63
2023/05/12 04:04:35;;;;;;;17.35;14.27;;;;;;;;;;4944408;29;20280;-64
2023/05/12 04:07:04;;;;;;;17.77;13.20;;;;;;;;;;4945885;29;20747;-64
2023/05/12 04:09:32;;;;;;;16.48;13.35;;;;;;;;;;4933389;29;20687;-66
2023/05/12 04:12:00;;;;;;;20.60;14.60;;;;;;;;;;4955480;29;20240;-66
2023/05/12 04:14:28;;;;;;;18.13;12.63;;;;;;;;;;4962663;29;20644;-66
2023/05/12 04:16:57;;;;;;;18.13;11.82;;;;;;;;;;4942424;29;20651;-66
2023/05/12 04:19:27;;;;;;;21.10;13.87;;;;;;;;;;4958459;28;20235;-66
2023/05/12 04:21:56;;;;;;;18.88;13.52;;;;;;;;;;4960853;29;20688;-66
2023/05/12 04:24:25;;;;;;;32.00;19.67;;;;;;;;;;4939986;29;20248;-66
2023/05/12 04:26:54;;;;;;;17.38;12.48;;;;;;;;;;4953716;29;20256;-66
2023/05/12 04:29:22;;;;;;;17.00;12.98;;;;;;;;;;4939866;29;20212;-66
2023/05/12 04:31:51;;;;;;;14.68;13.00;;;;;;;;;;4968490;28;20224;-66
2023/05/12 04:34:20;;;;;;;15.80;12.70;;;;;;;;;;4971994;29;20237;-66
2023/05/12 04:36:50;;;;;;;13.97;11.77;;;;;;;;;;4941194;29;20663;-66
2023/05/12 04:39:18;;;;;;;15.18;12.98;;;;;;;;;;4942351;29;20644;-66
2023/05/12 04:41:46;;;;;;;13.80;10.68;;;;;;;;;;4938050;29;20224;-66
2023/05/12 04:44:15;;;;;;;15.23;12.60;;;;;;;;;;4954726;28;20212;-66
2023/05/12 04:46:43;;;;;;;13.23;11.10;;;;;;;;;;4966368;29;20656;-66
2023/05/12 04:49:12;;;;;;;16.00;11.63;;;;;;;;;;4957002;28;20641;-66
2023/05/12 04:51:41;;;;;;;13.85;11.65;;;;;;;;;;4957028;29;20627;-66
2023/05/12 04:54:11;;;;;;;12.20;9.93;;;;;;;;;;4960555;29;20209;-66
2023/05/12 04:56:40;;;;;;;11.95;10.23;;;;;;;;;;4949705;29;20637;-66
2023/05/12 04:59:09;;;;;;;15.10;10.82;;;;;;;;;;4957021;29;20244;-66
2023/05/12 05:01:37;;;;;;;11.50;9.70;;;;;;;;;;4960284;28;20220;-66
2023/05/12 05:04:06;;;;;;;9.77;8.80;;;;;;;;;;4950249;29;20239;-66
2023/05/12 05:06:34;;;;;;;8.87;8.07;;;;;;;;;;4960131;29;20628;-66
2023/05/12 05:09:03;;;;;;;10.87;9.13;;;;;;;;;;4939740;29;20711;-66
2023/05/12 05:11:32;;;;;;;9.13;8.25;;;;;;;;;;4947743;29;20687;-66
2023/05/12 05:14:01;;;;;;;11.60;9.60;;;;;;;;;;4945018;29;20216;-66
2023/05/12 05:16:29;;;;;;;11.52;7.85;;;;;;;;;;4960889;29;20232;-66
2023/05/12 05:18:57;;;;;;;10.38;9.27;;;;;;;;;;4960365;29;20228;-66
2023/05/12 05:21:25;;;;;;;9.90;7.68;;;;;;;;;;4961694;28;20243;-66
2023/05/12 05:23:54;;;;;;;11.20;8.37;;;;;;;;;;4946690;29;20224;-66
2023/05/12 05:26:23;;;;;;;10.77;8.52;;;;;;;;;;4960274;29;20639;-67
2023/05/12 05:28:54;;;;;;;10.70;8.53;;;;;;;;;;4942672;29;20227;-66
2023/05/12 05:31:27;;;;;;;10.43;9.32;;;;;;;;;;4959882;28;20647;-66
2023/05/12 05:33:55;;;;;;;8.63;7.75;;;;;;;;;;4944097;28;20288;-66
2023/05/12 05:36:26;;;;;;;9.35;8.00;;;;;;;;;;4957412;29;20208;-66
2023/05/12 05:38:54;;;;;;;8.70;7.90;;;;;;;;;;4954869;29;20201;-66
2023/05/12 05:41:23;;;;;;;9.15;8.25;;;;;;;;;;4947122;28;20620;-67
2023/05/12 05:43:51;;;;;;;9.68;7.82;;;;;;;;;;4950926;29;20217;-66
2023/05/12 05:46:21;;;;;;;9.97;8.27;;;;;;;;;;4949822;29;20220;-66
2023/05/12 05:48:50;;;;;;;11.30;7.97;;;;;;;;;;4944828;29;20671;-66
2023/05/12 05:51:18;;;;;;;8.97;8.07;;;;;;;;;;4952250;29;20622;-66
2023/05/12 05:53:50;;;;;;;7.77;6.97;;;;;;;;;;4946833;29;20744;-68
2023/05/12 05:56:19;;;;;;;7.00;6.20;;;;;;;;;;4946285;29;21046;-70
2023/05/12 05:58:47;;;;;;;6.93;6.20;;;;;;;;;;4957704;29;20590;-70
2023/05/12 06:01:15;;;;;;;6.32;5.72;;;;;;;;;;4955530;29;20616;-70
2023/05/12 06:03:45;;;;;;;8.70;7.93;;;;;;;;;;4955104;28;20258;-71
2023/05/12 06:06:14;;;;;;;8.00;6.20;;;;;;;;;;4955339;29;20948;-72
2023/05/12 06:08:42;;;;;;;6.90;6.20;;;;;;;;;;4939995;29;20634;-72
2023/05/12 06:11:10;;;;;;;5.70;5.20;;;;;;;;;;4955088;29;20667;-71
2023/05/12 06:13:39;;;;;;;6.77;6.17;;;;;;;;;;4953330;29;20607;-71
2023/05/12 06:16:07;;;;;;;7.17;6.47;;;;;;;;;;4936034;29;20661;-70
2023/05/12 06:18:36;;;;;;;6.80;6.20;;;;;;;;;;4937068;29;20622;-70
2023/05/12 06:21:06;;;;;;;5.97;5.47;;;;;;;;;;4940854;29;20698;-67
2023/05/12 06:23:34;;;;;;;6.90;6.30;;;;;;;;;;4944884;29;20670;-68
2023/05/12 06:26:03;;;;;;;6.97;6.27;;;;;;;;;;4931543;29;20812;-68
2023/05/12 06:28:31;;;;;;;8.60;6.37;;;;;;;;;;4934180;29;20675;-67
2023/05/12 06:30:59;;;;;;;8.00;7.20;;;;;;;;;;4934003;29;20979;-68
2023/05/12 06:33:27;;;;;;;8.57;7.70;;;;;;;;;;4940430;29;20658;-67
2023/05/12 06:35:56;;;;;;;8.23;7.20;;;;;;;;;;4933217;29;21152;-69
2023/05/12 06:38:25;;;;;;;7.80;7.07;;;;;;;;;;4935235;29;20671;-69
2023/05/12 06:40:54;;;;;;;10.03;7.17;;;;;;;;;;4934888;29;20629;-67
2023/05/12 06:43:23;;;;;;;7.37;6.77;;;;;;;;;;4937918;29;20615;-66
2023/05/12 06:45:56;;;;;;;8.87;7.93;;;;;;;;;;4937310;29;20914;-64
2023/05/12 06:48:24;;;;;;;12.77;11.17;;;;;;;;;;4960184;29;20691;-64
2023/05/12 06:50:52;;;;;;;10.00;9.00;;;;;;;;;;4958747;28;20758;-64
2023/05/12 06:53:21;;;;;;;11.70;10.50;;;;;;;;;;4939276;29;20641;-65
2023/05/12 06:55:52;;;;;;;16.63;12.30;;;;;;;;;;4938191;29;20628;-64
2023/05/12 06:58:20;;;;;;;12.10;10.80;;;;;;;;;;4937461;29;20591;-64
2023/05/12 07:00:49;;;;;;;15.30;12.20;;;;;;;;;;4938934;29;20651;-66
2023/05/12 07:03:17;;;;;;;14.93;11.93;;;;;;;;;;4920234;29;20929;-65
2023/05/12 07:05:45;;;;;;;16.17;12.07;;;;;;;;;;4935917;29;20602;-67
2023/05/12 07:08:14;;;;;;;13.60;11.33;;;;;;;;;;4925303;29;20666;-67
2023/05/12 07:10:42;;;;;;;13.80;12.23;;;;;;;;;;4949244;29;20635;-67
2023/05/12 07:13:12;;;;;;;16.13;12.33;;;;;;;;;;4926829;29;20610;-67
2023/05/12 07:15:40;;;;;;;14.57;11.93;;;;;;;;;;4934518;29;20609;-66
2023/05/12 07:18:08;;;;;;;15.93;11.60;;;;;;;;;;4938246;29;20611;-65
2023/05/12 07:20:37;;;;;;;17.93;14.27;;;;;;;;;;4940628;29;20711;-66
2023/05/12 07:23:05;;;;;;;16.70;11.63;;;;;;;;;;4938784;29;21145;-66
2023/05/12 07:25:33;;;;;;;12.07;10.60;;;;;;;;;;4924093;29;20723;-66
2023/05/12 07:28:02;;;;;;;19.20;12.23;;;;;;;;;;4933421;29;20695;-66
2023/05/12 07:30:31;;;;;;;13.63;11.50;;;;;;;;;;4927161;29;20599;-66
2023/05/12 07:33:00;;;;;;;13.97;11.60;;;;;;;;;;4931346;29;20723;-65
2023/05/12 07:35:29;;;;;;;13.20;11.80;;;;;;;;;;4934743;29;20720;-65
2023/05/12 07:37:58;;;;;;;13.37;11.07;;;;;;;;;;4944872;28;20656;-65
2023/05/12 07:40:26;;;;;;;11.67;10.47;;;;;;;;;;4945476;28;20976;-65
2023/05/12 07:42:54;;;;;;;17.00;11.73;;;;;;;;;;4952335;28;20627;-66
2023/05/12 07:45:23;;;;;;;12.53;10.53;;;;;;;;;;4932171;29;20703;-66
2023/05/12 07:47:53;;;;;;;13.33;10.27;;;;;;;;;;4940981;29;20758;-67
2023/05/12 07:50:21;;;;;;;13.60;12.10;;;;;;;;;;4940917;29;20722;-67
2023/05/12 07:52:49;;;;;;;14.03;11.63;;;;;;;;;;4943276;29;20738;-67
2023/05/12 07:55:18;;;;;;;14.13;12.03;;;;;;;;;;4953841;29;21049;-66
2023/05/12 07:57:46;;;;;;;15.27;12.93;;;;;;;;;;4953307;29;20656;-66
2023/05/12 08:00:15;;;;;;;13.37;11.97;;;;;;;;;;4949136;29;20657;-66
2023/05/12 08:02:43;;;;;;;14.93;11.60;;;;;;;;;;4946607;29;20754;-66
2023/05/12 08:05:13;;;;;;;10.93;9.83;;;;;;;;;;4933055;29;20639;-65
2023/05/12 08:07:42;;;;;;;16.30;12.80;;;;;;;;;;4932369;29;21012;-68
2023/05/12 08:10:11;;;;;;;12.77;11.47;;;;;;;;;;4932643;29;20683;-67
2023/05/12 08:12:40;;;;;;;10.43;9.23;;;;;;;;;;4932329;29;20607;-68
2023/05/12 08:15:08;;;;;;;11.50;10.23;;;;;;;;;;4933359;29;20611;-68
2023/05/12 08:17:36;;;;;;;20.17;13.80;;;;;;;;;;4927538;29;21053;-68
2023/05/12 08:20:05;;;;;;;16.93;11.00;;;;;;;;;;4940089;29;20619;-68
2023/05/12 08:22:36;;;;;;;12.20;10.53;;;;;;;;;;4930053;29;20991;-67
2023/05/12 08:25:04;;;;;;;11.67;10.17;;;;;;;;;;4938201;29;20681;-67
2023/05/12 08:27:33;;;;;;;9.13;8.20;;;;;;;;;;4941466;28;20639;-67
2023/05/12 08:30:01;;;;;;;9.23;8.40;;;;;;;;;;4935877;29;20747;-67
2023/05/12 08:32:33;;;;;;;6.53;5.67;;;;;;;;;;4955580;29;20684;-66
2023/05/12 08:35:01;;;;;;;6.20;5.70;;;;;;;;;;4955621;28;20647;-66
2023/05/12 08:37:29;;;;;;;8.67;6.20;;;;;;;;;;4948087;29;20670;-68
2023/05/12 08:39:59;;;;;;;9.30;5.33;;;;;;;;;;4938264;29;20989;-68
2023/05/12 08:42:31;;;;;;;6.30;5.70;;;;;;;;;;4937988;29;20978;-68
2023/05/12 08:45:00;;;;;;;7.53;6.80;;;;;;;;;;4937005;29;20593;-68
2023/05/12 08:47:29;;;;;;;10.00;8.10;;;;;;;;;;4933945;29;20636;-68
2023/05/12 08:49:59;;;;;;;10.07;9.00;;;;;;;;;;4936956;29;20639;-68
2023/05/12 08:52:28;;;;;;;8.60;7.80;;;;;;;;;;4937401;29;21010;-68
2023/05/12 08:54:56;;;;;;;8.13;7.10;;;;;;;;;;4937656;29;20644;-68
2023/05/12 08:57:26;;;;;;;8.07;7.47;;;;;;;;;;4936898;29;20608;-69
2023/05/12 08:59:56;;;;;;;7.93;7.20;;;;;;;;;;4937446;29;20628;-68
2023/05/12 09:02:24;;;;;;;14.00;7.87;;;;;;;;;;4927588;29;21161;-68
2023/05/12 09:04:53;;;;;;;8.33;7.63;;;;;;;;;;4935993;29;20625;-68
2023/05/12 09:07:23;;;;;;;7.97;7.27;;;;;;;;;;4938194;29;20632;-68
2023/05/12 09:09:53;;;;;;;7.90;7.20;;;;;;;;;;4936068;29;20688;-68
2023/05/12 09:12:21;;;;;;;7.60;6.60;;;;;;;;;;4933498;29;20625;-68
2023/05/12 09:14:55;;;;;;;11.37;6.23;;;;;;;;;;4941730;29;20639;-67
2023/05/12 09:17:23;;;;;;;7.50;6.90;;;;;;;;;;4951291;29;20644;-66
2023/05/12 09:19:52;;;;;;;6.87;6.30;;;;;;;;;;4947364;29;20737;-68
2023/05/12 09:22:28;;;;;;;6.40;5.90;;;;;;;;;;4938547;29;20632;-68
2023/05/12 09:24:56;;;;;;;7.40;6.80;;;;;;;;;;4937540;29;20682;-67
2023/05/12 09:27:26;;;;;;;9.63;6.67;;;;;;;;;;4938997;29;20708;-67
2023/05/12 09:29:55;;;;;;;8.90;8.10;;;;;;;;;;4932192;29;20672;-66
2023/05/12 09:32:31;;;;;;;6.57;6.03;;;;;;;;;;4940238;29;20621;-68
2023/05/12 09:35:03;;;;;;;6.33;5.83;;;;;;;;;;4916962;29;20966;-68
2023/05/12 09:37:32;;;;;;;6.87;6.17;;;;;;;;;;4928487;29;20623;-68
2023/05/12 09:40:01;;;;;;;7.00;6.40;;;;;;;;;;4933895;29;20985;-68
2023/05/12 09:42:30;;;;;;;7.60;5.57;;;;;;;;;;4939338;29;20628;-67
2023/05/12 09:45:01;;;;;;;5.90;5.50;;;;;;;;;;4947146;29;20987;-67
2023/05/12 09:47:34;;;;;;;6.50;5.90;;;;;;;;;;4946160;29;20673;-67
2023/05/12 09:50:02;;;;;;;7.70;6.90;;;;;;;;;;4922729;29;20648;-68
2023/05/12 09:52:31;;;;;;;6.10;5.57;;;;;;;;;;4939347;29;20995;-67
2023/05/12 09:55:09;;;;;;;6.47;5.87;;;;;;;;;;4947854;29;20690;-66
2023/05/12 09:57:40;;;;;;;7.20;6.50;;;;;;;;;;4934292;29;21064;-66
2023/05/12 10:00:12;;;;;;;6.50;5.90;;;;;;;;;;4934498;29;20674;-68
2023/05/12 10:02:41;;;;;;;7.13;6.53;;;;;;;;;;4914711;29;20585;-67
2023/05/12 10:05:13;;;;;;;7.20;6.60;;;;;;;;;;4928332;29;20718;-65
2023/05/12 10:07:42;;;;;;;7.37;6.77;;;;;;;;;;4949570;29;20627;-65
2023/05/12 10:10:12;;;;;;;10.83;6.80;;;;;;;;;;4946126;29;20692;-65
2023/05/12 10:12:40;;;;;;;7.13;6.43;;;;;;;;;;4955845;29;20660;-65
2023/05/12 10:15:11;;;;;;;8.50;6.23;;;;;;;;;;4955717;28;20659;-65
2023/05/12 10:17:41;;;;;;;6.63;6.03;;;;;;;;;;4948883;29;20613;-65
2023/05/12 10:20:10;;;;;;;7.37;6.63;;;;;;;;;;4960517;28;20604;-66
2023/05/12 10:22:39;;;;;;;7.20;6.60;;;;;;;;;;4944168;29;20632;-66
2023/05/12 10:25:08;;;;;;;7.30;6.70;;;;;;;;;;4958413;29;20633;-65
2023/05/12 10:27:37;;;;;;;6.40;5.80;;;;;;;;;;4959682;29;20649;-66
2023/05/12 10:30:06;;;;;;;6.80;5.83;;;;;;;;;;4947004;29;20674;-66
2023/05/12 10:32:36;;;;;;;6.20;5.80;;;;;;;;;;4959798;28;20636;-65
2023/05/12 10:35:11;;;;;;;7.13;6.50;;;;;;;;;;4959047;29;20623;-66
2023/05/12 10:37:39;;;;;;;9.83;6.90;;;;;;;;;;4954110;29;20640;-65
2023/05/12 10:40:09;;;;;;;7.27;6.60;;;;;;;;;;4931947;28;20651;-65
2023/05/12 10:42:39;;;;;;;8.83;7.53;;;;;;;;;;4959395;28;20620;-65
2023/05/12 10:45:16;;;;;;;8.43;6.43;;;;;;;;;;4956419;28;20696;-65
2023/05/12 10:47:47;;;;;;;6.10;5.60;;;;;;;;;;4959270;29;20627;-66
2023/05/12 10:50:15;;;;;;;5.20;4.80;;;;;;;;;;4945529;29;20680;-66
2023/05/12 10:52:53;;;;;;;7.73;5.03;;;;;;;;;;4957730;28;20663;-66
2023/05/12 10:55:31;;;;;;;5.47;5.07;;;;;;;;;;4958707;28;20653;-64
2023/05/12 10:58:05;;;;;;;11.40;5.40;;;;;;;;;;4958842;29;20639;-66
2023/05/12 11:00:33;;;;;;;6.20;5.70;;;;;;;;;;4954923;28;20614;-66
2023/05/12 11:03:12;;;;;;;5.93;4.90;;;;;;;;;;4958114;28;20651;-65
2023/05/12 11:05:40;;;;;;;5.00;4.70;;;;;;;;;;4957372;28;20652;-66
2023/05/12 11:08:08;;;;;;;5.17;4.73;;;;;;;;;;4957394;29;20652;-66
2023/05/12 11:21:13;;;;;;;4.70;4.30;;;;;;;;;;6032467;22;1561987;-65
2023/05/12 11:23:41;;;;;;;4.03;3.73;;;;;;;;;;6098927;23;20155;-64
2023/05/12 11:26:17;;;;;;;4.77;4.47;;;;;;;;;;6097697;23;20586;-64
2023/05/12 11:28:46;;;;;;;4.90;4.43;;;;;;;;;;6097851;23;20581;-64
2023/05/12 11:31:17;;;;;;;5.13;4.77;;;;;;;;;;6098971;23;20567;-65
2023/05/12 11:33:46;;;;;;;5.73;5.23;;;;;;;;;;6098932;23;20540;-65
2023/05/12 11:36:19;;;;;;;5.53;5.13;;;;;;;;;;6097751;23;20575;-65
2023/05/12 11:38:51;;;;;;;5.83;5.43;;;;;;;;;;6097836;23;20544;-65
2023/05/12 11:41:23;;;;;;;6.73;6.00;;;;;;;;;;6098246;23;20587;-65
2023/05/12 11:43:51;;;;;;;5.87;5.50;;;;;;;;;;6099036;23;20532;-65
2023/05/12 11:46:26;;;;;;;7.20;6.60;;;;;;;;;;6099781;23;20560;-65
2023/05/12 11:48:57;;;;;;;6.30;5.87;;;;;;;;;;6098678;23;20602;-65
2023/05/12 11:51:27;;;;;;;6.33;5.83;;;;;;;;;;6099910;23;20625;-65
2023/05/12 11:53:55;;;;;;;6.73;6.23;;;;;;;;;;6098386;23;20550;-65
2023/05/12 11:56:25;;;;;;;6.80;6.30;;;;;;;;;;6099156;23;20627;-64
2023/05/12 11:58:54;;;;;;;8.87;7.97;;;;;;;;;;6097828;23;20575;-64
2023/05/12 12:01:23;;;;;;;7.80;7.07;;;;;;;;;;6098478;23;20579;-65
2023/05/12 12:03:52;;;;;;;7.70;7.00;;;;;;;;;;6097173;23;20552;-64
2023/05/12 12:06:21;;;;;;;5.70;5.30;;;;;;;;;;6097528;23;20583;-64
2023/05/12 12:08:54;;;;;;;7.57;6.90;;;;;;;;;;6097009;23;20568;-65
2023/05/12 12:11:25;;;;;;;5.57;5.27;;;;;;;;;;6069034;23;20542;-65
2023/05/12 12:13:56;;;;;;;6.40;5.80;;;;;;;;;;6069353;23;20540;-65
2023/05/12 12:16:25;;;;;;;5.17;4.60;;;;;;;;;;6069397;23;20565;-65
2023/05/12 12:18:53;;;;;;;5.40;5.00;;;;;;;;;;6068794;23;20584;-65
2023/05/12 12:21:21;;;;;;;6.17;5.77;;;;;;;;;;6065159;23;20607;-64
2023/05/12 12:23:50;;;;;;;7.23;6.53;;;;;;;;;;6062714;23;20612;-64
2023/05/12 12:26:21;;;;;;;6.80;6.20;;;;;;;;;;6063320;23;20548;-64
2023/05/12 12:28:50;;;;;;;7.63;6.83;;;;;;;;;;6061869;23;20930;-64
2023/05/12 12:31:18;;;;;;;8.03;7.30;;;;;;;;;;6062701;23;20561;-64
2023/05/12 12:33:46;;;;;;;6.90;6.40;;;;;;;;;;6064194;23;20585;-64
2023/05/12 12:36:14;;;;;;;8.00;7.30;;;;;;;;;;6064128;23;20536;-65
2023/05/12 12:38:42;;;;;;;7.20;6.70;;;;;;;;;;6063483;23;20536;-65
2023/05/12 12:41:11;;;;;;;9.23;7.70;;;;;;;;;;6063166;23;20557;-64
2023/05/12 12:43:41;;;;;;;8.27;7.47;;;;;;;;;;6062888;23;21229;-64
2023/05/12 12:46:09;;;;;;;6.70;6.20;;;;;;;;;;6064142;23;20565;-65
2023/05/12 12:48:37;;;;;;;6.70;6.20;;;;;;;;;;6063221;23;20581;-64
2023/05/12 12:51:06;;;;;;;7.50;6.80;;;;;;;;;;6064048;23;20644;-64
2023/05/12 12:53:34;;;;;;;7.53;6.83;;;;;;;;;;6064062;23;20573;-64
2023/05/12 12:56:02;;;;;;;7.63;7.07;;;;;;;;;;6064808;23;20559;-64
2023/05/12 12:58:31;;;;;;;8.80;8.00;;;;;;;;;;6063618;23;20573;-65
2023/05/12 13:01:01;;;;;;;9.60;8.80;;;;;;;;;;6062106;23;20565;-65
2023/05/12 13:03:29;;;;;;;8.03;7.20;;;;;;;;;;6062970;23;20728;-64
2023/05/12 13:05:57;;;;;;;8.30;7.60;;;;;;;;;;6063221;23;20572;-64
2023/05/12 13:08:26;;;;;;;8.53;7.67;;;;;;;;;;6063607;23;20544;-64
2023/05/12 13:10:54;;;;;;;7.70;7.10;;;;;;;;;;6063476;23;20629;-65
2023/05/12 13:13:23;;;;;;;7.90;7.30;;;;;;;;;;6063354;23;20676;-65
2023/05/12 13:15:52;;;;;;;7.73;6.93;;;;;;;;;;6061851;23;20653;-65
2023/05/12 13:18:22;;;;;;;8.37;7.70;;;;;;;;;;6063516;23;20573;-65
2023/05/12 13:20:50;;;;;;;7.23;6.53;;;;;;;;;;6063016;23;20676;-64
2023/05/12 13:23:20;;;;;;;7.77;7.20;;;;;;;;;;6064352;23;20637;-65
2023/05/12 13:25:49;;;;;;;7.50;6.90;;;;;;;;;;6062576;23;20644;-65
2023/05/12 13:28:17;;;;;;;6.23;5.80;;;;;;;;;;6064147;23;20569;-65
2023/05/12 13:30:45;;;;;;;7.80;7.13;;;;;;;;;;6062264;23;20625;-65
2023/05/12 13:33:16;;;;;;;6.63;6.03;;;;;;;;;;6062703;23;20591;-65
2023/05/12 13:35:45;;;;;;;6.43;5.93;;;;;;;;;;6062940;23;20549;-65
2023/05/12 13:38:14;;;;;;;6.43;5.77;;;;;;;;;;6063597;23;20582;-65
2023/05/12 13:40:42;;;;;;;10.10;5.10;;;;;;;;;;6063580;23;20558;-65
2023/05/12 13:43:11;;;;;;;6.47;5.27;;;;;;;;;;6063651;23;20562;-65
2023/05/12 13:45:39;;;;;;;5.70;5.20;;;;;;;;;;6063698;23;20629;-65
2023/05/12 13:48:07;;;;;;;6.20;5.60;;;;;;;;;;6064002;23;20644;-63
2023/05/12 13:50:35;;;;;;;5.97;5.60;;;;;;;;;;6064395;23;20702;-64
2023/05/12 13:53:05;;;;;;;6.83;6.10;;;;;;;;;;6064165;23;20619;-64
2023/05/12 13:55:37;;;;;;;6.40;6.00;;;;;;;;;;6064003;23;20566;-64
2023/05/12 13:58:05;;;;;;;7.30;6.70;;;;;;;;;;6062864;23;20605;-64
2023/05/12 14:00:33;;;;;;;7.93;6.73;;;;;;;;;;6063701;23;20644;-64
2023/05/12 14:03:01;;;;;;;7.07;6.57;;;;;;;;;;6062123;23;20609;-64
2023/05/12 14:05:29;;;;;;;6.43;5.83;;;;;;;;;;6061112;23;20600;-64
2023/05/12 14:07:57;;;;;;;9.53;5.23;;;;;;;;;;6062896;23;21109;-64
2023/05/12 14:10:26;;;;;;;6.77;6.10;;;;;;;;;;6061958;23;20604;-64
2023/05/12 14:12:54;;;;;;;5.20;4.90;;;;;;;;;;6062815;23;20680;-64
2023/05/12 14:15:22;;;;;;;5.80;5.30;;;;;;;;;;6061243;23;20569;-64
2023/05/12 14:17:51;;;;;;;4.93;4.63;;;;;;;;;;6062872;23;20862;-64
2023/05/12 14:20:19;;;;;;;4.60;4.30;;;;;;;;;;6062599;23;20633;-64
2023/05/12 14:22:47;;;;;;;5.57;5.27;;;;;;;;;;6063234;23;20577;-64
2023/05/12 14:25:15;;;;;;;6.50;5.60;;;;;;;;;;6062703;23;20589;-64
2023/05/12 14:27:45;;;;;;;7.60;7.00;;;;;;;;;;6062396;23;20582;-64
2023/05/12 14:30:14;;;;;;;7.20;6.60;;;;;;;;;;6062525;23;20592;-64
2023/05/12 14:32:42;;;;;;;6.67;6.17;;;;;;;;;;6062683;23;20569;-64
2023/05/12 14:35:10;;;;;;;7.37;6.77;;;;;;;;;;6062461;23;20565;-64
2023/05/12 14:37:38;;;;;;;6.90;6.30;;;;;;;;;;6062162;23;20617;-65
2023/05/12 14:40:07;;;;;;;7.23;6.63;;;;;;;;;;6062007;23;21025;-65
2023/05/12 14:42:35;;;;;;;7.70;7.10;;;;;;;;;;6062046;23;20967;-65
2023/05/12 14:45:05;;;;;;;7.30;6.80;;;;;;;;;;6061203;23;21133;-65
2023/05/12 14:47:33;;;;;;;7.40;6.83;;;;;;;;;;6062638;23;20797;-64
2023/05/12 14:50:01;;;;;;;7.13;6.43;;;;;;;;;;6061847;23;20573;-64
2023/05/12 14:52:32;;;;;;;6.67;6.17;;;;;;;;;;6060845;23;20584;-64
2023/05/12 14:55:01;;;;;;;8.23;7.30;;;;;;;;;;6061835;23;20529;-64
2023/05/12 14:57:31;;;;;;;7.33;6.50;;;;;;;;;;6061571;23;20589;-63